Time;durP1;ratioP1;P1;durP2;ratioP2;P2;SDS_P1;SDS_P2;PMS_P1;PMS_P2;Temp;Humidity;BMP_temperature;BMP_pressure;BME280_temperature;BME280_humidity;BME280_pressure;Samples;Min_cycle;Max_cycle;Signal;HPM_P1;HPM_P2
2023/01/08 00:04:42;;;;;;;2.33;1.55;;;;;;;;;;12980861;22;20050;-81
2023/01/08 00:09:46;;;;;;;1.90;1.33;;;;;;;;;;13006616;22;20038;-81
2023/01/08 00:14:50;;;;;;;1.30;1.10;;;;;;;;;;13020106;22;20019;-81
2023/01/08 00:19:54;;;;;;;1.98;1.40;;;;;;;;;;13020584;22;20030;-82
2023/01/08 00:24:58;;;;;;;1.80;1.00;;;;;;;;;;13009857;22;20113;-81
2023/01/08 00:30:01;;;;;;;2.15;1.00;;;;;;;;;;13006843;22;20037;-80
2023/01/08 00:35:07;;;;;;;1.25;1.10;;;;;;;;;;13021505;22;20433;-81
2023/01/08 00:40:11;;;;;;;1.60;1.20;;;;;;;;;;13013444;22;20023;-82
2023/01/08 00:45:14;;;;;;;2.10;1.50;;;;;;;;;;13016388;22;20039;-82
2023/01/08 00:50:19;;;;;;;1.52;1.08;;;;;;;;;;13016156;22;20109;-82
2023/01/08 00:55:22;;;;;;;1.88;1.27;;;;;;;;;;13018126;22;20103;-82
2023/01/08 01:00:27;;;;;;;1.40;1.27;;;;;;;;;;13019475;22;20047;-82
2023/01/08 01:05:32;;;;;;;1.38;1.27;;;;;;;;;;13026891;22;20027;-82
2023/01/08 01:10:35;;;;;;;1.35;1.10;;;;;;;;;;13004569;22;20019;-82
2023/01/08 01:15:39;;;;;;;3.65;1.70;;;;;;;;;;13013330;22;20486;-83
2023/01/08 01:20:43;;;;;;;1.77;1.30;;;;;;;;;;13013605;22;20023;-82
2023/01/08 01:25:47;;;;;;;4.15;1.90;;;;;;;;;;13021102;22;20409;-82
2023/01/08 01:30:55;;;;;;;1.70;1.50;;;;;;;;;;12990958;22;20026;-82
2023/01/08 01:36:03;;;;;;;1.50;1.40;;;;;;;;;;13007902;22;20019;-82
2023/01/08 01:41:07;;;;;;;2.08;1.55;;;;;;;;;;13006443;22;20518;-82
2023/01/08 01:46:20;;;;;;;2.25;1.40;;;;;;;;;;13010701;22;20050;-82
2023/01/08 01:51:31;;;;;;;1.52;1.20;;;;;;;;;;13004763;22;20015;-82
2023/01/08 01:56:34;;;;;;;1.10;1.00;;;;;;;;;;13006119;22;20027;-82
2023/01/08 02:01:39;;;;;;;1.30;0.95;;;;;;;;;;13002337;22;20026;-81
2023/01/08 02:06:54;;;;;;;0.73;0.73;;;;;;;;;;13005644;22;20023;-82
2023/01/08 02:12:18;;;;;;;1.08;0.90;;;;;;;;;;13007118;22;20424;-82
2023/01/08 02:17:28;;;;;;;0.63;0.63;;;;;;;;;;13007878;22;20048;-82
2023/01/08 02:22:45;;;;;;;0.98;0.70;;;;;;;;;;13003033;22;20023;-81
2023/01/08 02:27:51;;;;;;;1.92;0.60;;;;;;;;;;12977663;22;20016;-82
2023/01/08 02:32:54;;;;;;;0.63;0.60;;;;;;;;;;13000649;22;20034;-82
2023/01/08 02:37:58;;;;;;;0.50;0.50;;;;;;;;;;13011377;22;20054;-82
2023/01/08 02:43:10;;;;;;;0.80;0.73;;;;;;;;;;13013804;22;20480;-82
2023/01/08 02:48:19;;;;;;;0.82;0.50;;;;;;;;;;13014320;22;20019;-80
2023/01/08 02:53:25;;;;;;;0.95;0.50;;;;;;;;;;13004848;22;20023;-80
2023/01/08 02:58:32;;;;;;;0.52;0.40;;;;;;;;;;13005253;22;20019;-80
2023/01/08 03:03:39;;;;;;;1.17;0.50;;;;;;;;;;12983022;22;20023;-81
2023/01/08 03:08:46;;;;;;;0.68;0.50;;;;;;;;;;13013695;22;20030;-81
2023/01/08 03:13:56;;;;;;;0.55;0.47;;;;;;;;;;13033202;22;20290;-81
2023/01/08 03:19:04;;;;;;;0.32;0.32;;;;;;;;;;13028670;22;20027;-82
2023/01/08 03:24:12;;;;;;;0.50;0.50;;;;;;;;;;13020588;22;20027;-83
2023/01/08 03:29:18;;;;;;;;;;;;;;;;;;13022958;22;20027;-81
2023/01/08 03:34:24;;;;;;;0.47;0.47;;;;;;;;;;13019627;22;20228;-82
2023/01/08 03:39:30;;;;;;;0.60;0.60;;;;;;;;;;13006329;22;20333;-81
2023/01/08 03:44:35;;;;;;;0.68;0.47;;;;;;;;;;13009956;22;20027;-81
2023/01/08 03:49:40;;;;;;;0.35;0.35;;;;;;;;;;13005868;22;20015;-81
2023/01/08 03:54:44;;;;;;;0.43;0.43;;;;;;;;;;13002201;22;20456;-81
2023/01/08 03:59:48;;;;;;;0.40;0.40;;;;;;;;;;13027560;22;20026;-81
2023/01/08 04:04:52;;;;;;;0.50;0.50;;;;;;;;;;13011677;22;20023;-81
2023/01/08 04:09:55;;;;;;;0.40;0.40;;;;;;;;;;13012486;22;20094;-80
2023/01/08 04:15:00;;;;;;;0.30;0.30;;;;;;;;;;13007898;22;20230;-79
2023/01/08 04:20:04;;;;;;;0.50;0.50;;;;;;;;;;13008621;22;20700;-79
2023/01/08 04:25:08;;;;;;;0.30;0.30;;;;;;;;;;13001145;22;20089;-79
2023/01/08 04:30:13;;;;;;;0.47;0.47;;;;;;;;;;13008110;22;20019;-79
2023/01/08 04:35:17;;;;;;;0.50;0.40;;;;;;;;;;13001189;22;20023;-79
2023/01/08 04:40:20;;;;;;;0.40;0.40;;;;;;;;;;12999369;22;20022;-79
2023/01/08 04:45:25;;;;;;;0.60;0.60;;;;;;;;;;13012758;22;20733;-81
2023/01/08 04:50:28;;;;;;;0.95;0.65;;;;;;;;;;13009781;22;20367;-82
2023/01/08 04:55:32;;;;;;;0.55;0.55;;;;;;;;;;13015872;22;20058;-81
2023/01/08 05:00:39;;;;;;;2.15;0.85;;;;;;;;;;13012232;22;20021;-81
2023/01/08 05:05:42;;;;;;;;;;;;;;;;;;13018494;22;20023;-81
2023/01/08 05:10:45;;;;;;;0.50;0.50;;;;;;;;;;13016637;22;19915;-82
2023/01/08 05:15:50;;;;;;;1.05;0.85;;;;;;;;;;13014476;22;20495;-81
2023/01/08 05:20:53;;;;;;;1.13;0.70;;;;;;;;;;13014648;22;20024;-81
2023/01/08 05:25:58;;;;;;;0.60;0.60;;;;;;;;;;13017490;22;20426;-83
2023/01/08 05:31:02;;;;;;;0.50;0.50;;;;;;;;;;13026945;22;20019;-82
2023/01/08 05:36:07;;;;;;;0.70;0.50;;;;;;;;;;13024813;22;20023;-80
2023/01/08 05:41:11;;;;;;;0.73;0.70;;;;;;;;;;13031459;22;20021;-80
2023/01/08 05:46:16;;;;;;;0.60;0.60;;;;;;;;;;13013078;22;20472;-79
2023/01/08 05:51:19;;;;;;;0.47;0.47;;;;;;;;;;13010131;22;20015;-80
2023/01/08 05:56:22;;;;;;;0.68;0.60;;;;;;;;;;13006042;22;20023;-80
2023/01/08 06:01:27;;;;;;;0.50;0.50;;;;;;;;;;13007663;22;20019;-82
2023/01/08 06:06:31;;;;;;;0.30;0.30;;;;;;;;;;13012331;22;20074;-80
2023/01/08 06:11:34;;;;;;;0.30;0.30;;;;;;;;;;13006136;22;20026;-80
2023/01/08 06:16:39;;;;;;;0.85;0.50;;;;;;;;;;13007093;22;20037;-79
2023/01/08 06:21:42;;;;;;;0.40;0.40;;;;;;;;;;13005359;22;20195;-79
2023/01/08 06:26:45;;;;;;;0.40;0.40;;;;;;;;;;13006703;22;20140;-80
2023/01/08 06:31:50;;;;;;;1.30;0.40;;;;;;;;;;13005286;22;20493;-80
2023/01/08 06:36:53;;;;;;;0.30;0.30;;;;;;;;;;13010049;22;20019;-79
2023/01/08 06:41:57;;;;;;;0.28;0.28;;;;;;;;;;13006522;22;20023;-79
2023/01/08 06:47:01;;;;;;;0.30;0.30;;;;;;;;;;13026686;22;20015;-81
2023/01/08 06:52:04;;;;;;;0.30;0.30;;;;;;;;;;13004714;22;20034;-82
2023/01/08 06:57:08;;;;;;;0.40;0.40;;;;;;;;;;13014101;22;20019;-81
2023/01/08 07:02:14;;;;;;;0.40;0.40;;;;;;;;;;13011706;22;20023;-81
2023/01/08 07:07:18;;;;;;;0.55;0.43;;;;;;;;;;13012662;22;20042;-82
2023/01/08 07:12:21;;;;;;;0.30;0.30;;;;;;;;;;13011408;22;20023;-81
2023/01/08 07:17:26;;;;;;;0.50;0.50;;;;;;;;;;13035560;22;20460;-82
2023/01/08 07:22:29;;;;;;;0.60;0.30;;;;;;;;;;13015564;22;20019;-79
2023/01/08 07:27:33;;;;;;;0.50;0.50;;;;;;;;;;13015150;22;20023;-80
2023/01/08 07:32:37;;;;;;;0.63;0.50;;;;;;;;;;12988106;22;20511;-80
2023/01/08 07:37:41;;;;;;;1.48;0.47;;;;;;;;;;13016077;22;20070;-80
2023/01/08 07:42:44;;;;;;;0.50;0.40;;;;;;;;;;13029025;22;20527;-80
2023/01/08 07:47:49;;;;;;;0.40;0.40;;;;;;;;;;13012613;22;20362;-80
2023/01/08 07:52:52;;;;;;;0.82;0.50;;;;;;;;;;13034160;22;20083;-80
2023/01/08 07:57:56;;;;;;;1.92;0.77;;;;;;;;;;13032982;22;20019;-79
2023/01/08 08:03:04;;;;;;;0.82;0.45;;;;;;;;;;12994770;22;20023;-80
2023/01/08 08:08:09;;;;;;;0.50;0.50;;;;;;;;;;13005840;22;20023;-80
2023/01/08 08:13:13;;;;;;;0.70;0.70;;;;;;;;;;13003027;22;20027;-82
2023/01/08 08:18:17;;;;;;;0.98;0.60;;;;;;;;;;13023702;22;20026;-81
2023/01/08 08:23:21;;;;;;;0.68;0.68;;;;;;;;;;13006271;22;20521;-81
2023/01/08 08:28:24;;;;;;;3.03;1.42;;;;;;;;;;13008724;22;20131;-82
2023/01/08 08:33:29;;;;;;;7.30;3.55;;;;;;;;;;13003342;22;20155;-82
2023/01/08 08:38:32;;;;;;;3.75;2.03;;;;;;;;;;12993358;22;20039;-79
2023/01/08 08:43:35;;;;;;;1.83;1.30;;;;;;;;;;12985228;22;20519;-80
2023/01/08 08:48:40;;;;;;;1.75;0.95;;;;;;;;;;13006552;22;20019;-83
2023/01/08 08:53:43;;;;;;;0.93;0.70;;;;;;;;;;13005233;22;20030;-82
2023/01/08 08:58:46;;;;;;;0.60;0.60;;;;;;;;;;13005137;22;20080;-83
2023/01/08 09:03:51;;;;;;;0.55;0.55;;;;;;;;;;13021755;22;20493;-84
2023/01/08 09:08:55;;;;;;;0.40;0.40;;;;;;;;;;13045396;22;20509;-84
2023/01/08 09:14:01;;;;;;;0.40;0.40;;;;;;;;;;13043586;22;20028;-84
2023/01/08 09:19:06;;;;;;;0.73;0.60;;;;;;;;;;13042658;22;20039;-85
2023/01/08 09:24:10;;;;;;;0.30;0.30;;;;;;;;;;13045538;22;20598;-85
2023/01/08 09:29:14;;;;;;;0.50;0.40;;;;;;;;;;13045346;22;20046;-85
2023/01/08 09:34:19;;;;;;;0.20;0.20;;;;;;;;;;13043265;22;20074;-85
2023/01/08 09:39:23;;;;;;;2.77;2.10;;;;;;;;;;13043261;22;20054;-84
2023/01/08 09:44:30;;;;;;;0.80;0.80;;;;;;;;;;13039455;22;20027;-84
2023/01/08 09:49:40;;;;;;;1.67;1.00;;;;;;;;;;13052012;22;20023;-84
2023/01/08 09:54:44;;;;;;;0.40;0.40;;;;;;;;;;13042910;22;20023;-86
2023/01/08 09:59:48;;;;;;;0.80;0.47;;;;;;;;;;13044265;22;20024;-86
2023/01/08 10:04:56;;;;;;;0.30;0.30;;;;;;;;;;13019092;22;20023;-85
2023/01/08 10:10:01;;;;;;;0.43;0.40;;;;;;;;;;13043015;22;20370;-85
2023/01/08 10:15:08;;;;;;;0.30;0.30;;;;;;;;;;13047345;22;20027;-86
2023/01/08 10:20:15;;;;;;;0.65;0.65;;;;;;;;;;13047167;22;20164;-86
2023/01/08 10:25:22;;;;;;;0.40;0.40;;;;;;;;;;13049167;22;20061;-87
2023/01/08 10:30:34;;;;;;;0.40;0.30;;;;;;;;;;13047569;22;20045;-86
2023/01/08 10:35:41;;;;;;;0.30;0.30;;;;;;;;;;13045613;22;20020;-86
2023/01/08 10:40:48;;;;;;;0.30;0.30;;;;;;;;;;13045481;22;20540;-86
2023/01/08 10:45:58;;;;;;;0.63;0.45;;;;;;;;;;13046301;22;20062;-85
2023/01/08 10:51:12;;;;;;;2.15;1.38;;;;;;;;;;13042569;22;20458;-85
2023/01/08 10:56:20;;;;;;;1.50;0.75;;;;;;;;;;13047976;22;20023;-86
2023/01/08 11:01:27;;;;;;;0.35;0.30;;;;;;;;;;13046564;22;20390;-86
2023/01/08 11:06:34;;;;;;;0.80;0.30;;;;;;;;;;13046640;22;20319;-86
2023/01/08 11:11:38;;;;;;;0.40;0.40;;;;;;;;;;13046463;22;20019;-86
2023/01/08 11:16:42;;;;;;;0.50;0.50;;;;;;;;;;13047944;22;20019;-86
2023/01/08 11:22:01;;;;;;;0.50;0.47;;;;;;;;;;13046731;22;20026;-86
2023/01/08 11:27:12;;;;;;;0.30;0.30;;;;;;;;;;13046661;22;20026;-86
2023/01/08 11:32:30;;;;;;;0.68;0.57;;;;;;;;;;13067972;22;20025;-86
2023/01/08 11:37:37;;;;;;;0.82;0.70;;;;;;;;;;13048509;22;20065;-85
2023/01/08 11:42:54;;;;;;;0.77;0.70;;;;;;;;;;13047723;22;20042;-85
2023/01/08 11:48:27;;;;;;;0.75;0.70;;;;;;;;;;13047208;22;20664;-86
2023/01/08 11:53:40;;;;;;;0.43;0.43;;;;;;;;;;13046850;22;20019;-87
2023/01/08 11:59:08;;;;;;;0.50;0.50;;;;;;;;;;13048822;22;20120;-86
2023/01/08 12:04:47;;;;;;;0.57;0.50;;;;;;;;;;13048687;22;20360;-85
2023/01/08 12:09:59;;;;;;;0.60;0.32;;;;;;;;;;13048212;22;20027;-85
2023/01/08 12:15:14;;;;;;;1.42;0.68;;;;;;;;;;13048700;22;20027;-86
2023/01/08 12:20:27;;;;;;;0.45;0.40;;;;;;;;;;13047335;22;20023;-87
2023/01/08 12:25:44;;;;;;;0.63;0.50;;;;;;;;;;13049103;22;20027;-87
2023/01/08 12:31:01;;;;;;;2.13;0.60;;;;;;;;;;13047625;22;20110;-87
2023/01/08 12:36:10;;;;;;;0.75;0.50;;;;;;;;;;13035629;22;20110;-88
2023/01/08 12:41:19;;;;;;;0.32;0.32;;;;;;;;;;13010424;22;20027;-88
2023/01/08 12:46:24;;;;;;;0.45;0.45;;;;;;;;;;13036365;22;20030;-88
2023/01/08 12:51:44;;;;;;;1.25;0.70;;;;;;;;;;13036698;22;20019;-88
2023/01/08 12:56:59;;;;;;;1.30;0.80;;;;;;;;;;13042612;22;20089;-87
2023/01/08 13:02:15;;;;;;;0.47;0.47;;;;;;;;;;13034687;22;20015;-88
2023/01/08 13:07:20;;;;;;;;;;;;;;;;;;13009912;22;20046;-88
2023/01/08 13:12:34;;;;;;;0.88;0.68;;;;;;;;;;13034959;22;19942;-87
2023/01/08 13:17:38;;;;;;;1.95;1.00;;;;;;;;;;13015606;22;20781;-87
2023/01/08 13:22:42;;;;;;;0.40;0.40;;;;;;;;;;13040420;22;20589;-87
2023/01/08 13:27:48;;;;;;;0.82;0.50;;;;;;;;;;13040018;22;20027;-87
2023/01/08 13:32:52;;;;;;;1.07;0.60;;;;;;;;;;13041488;22;20019;-87
2023/01/08 13:38:13;;;;;;;0.70;0.50;;;;;;;;;;13042976;22;20039;-87
2023/01/08 13:43:21;;;;;;;0.57;0.50;;;;;;;;;;13040874;22;20023;-87
2023/01/08 13:48:27;;;;;;;0.35;0.32;;;;;;;;;;13042106;22;20520;-87
2023/01/08 13:53:31;;;;;;;6.47;3.55;;;;;;;;;;13044100;22;20023;-88
2023/01/08 13:58:40;;;;;;;4.30;2.70;;;;;;;;;;13046355;22;20031;-87
2023/01/08 14:03:46;;;;;;;1.15;0.85;;;;;;;;;;13045158;22;20011;-87
2023/01/08 14:08:51;;;;;;;1.67;0.70;;;;;;;;;;13047892;22;20081;-87
2023/01/08 14:13:57;;;;;;;1.77;0.60;;;;;;;;;;13047293;22;20019;-88
2023/01/08 14:19:04;;;;;;;0.88;0.70;;;;;;;;;;13053076;22;20037;-87
2023/01/08 14:24:12;;;;;;;0.63;0.50;;;;;;;;;;13046440;22;20030;-87
2023/01/08 14:29:21;;;;;;;0.90;0.57;;;;;;;;;;13052113;22;20459;-87
2023/01/08 14:34:28;;;;;;;0.30;0.30;;;;;;;;;;13052983;22;20517;-87
2023/01/08 14:39:35;;;;;;;16.70;10.73;;;;;;;;;;13021600;22;20094;-87
2023/01/08 14:44:44;;;;;;;7.85;5.13;;;;;;;;;;13056757;22;20324;-87
2023/01/08 14:49:53;;;;;;;4.03;2.70;;;;;;;;;;13047208;22;20027;-88
2023/01/08 14:54:59;;;;;;;4.68;3.00;;;;;;;;;;13047071;22;20023;-87
2023/01/08 15:00:15;;;;;;;4.13;2.75;;;;;;;;;;13049138;22;20030;-87
2023/01/08 15:05:24;;;;;;;5.63;3.60;;;;;;;;;;13021506;22;20047;-88
2023/01/08 15:10:39;;;;;;;2.70;2.20;;;;;;;;;;13046210;22;20026;-87
2023/01/08 15:15:56;;;;;;;5.65;3.33;;;;;;;;;;13049515;22;20029;-87
2023/01/08 15:21:07;;;;;;;18.42;9.77;;;;;;;;;;13048782;22;20034;-88
2023/01/08 15:26:13;;;;;;;8.32;5.22;;;;;;;;;;13048740;22;20038;-87
2023/01/08 15:31:26;;;;;;;2.85;1.85;;;;;;;;;;13047497;22;20023;-88
2023/01/08 15:36:30;;;;;;;1.42;1.08;;;;;;;;;;13046985;22;20312;-87
2023/01/08 15:46:59;;;;;;;0.50;0.50;;;;;;;;;;13047453;22;20019;-88
2023/01/08 15:52:09;;;;;;;0.30;0.30;;;;;;;;;;13043521;22;20099;-87
2023/01/08 15:57:14;;;;;;;1.50;0.43;;;;;;;;;;13041586;22;20098;-87
2023/01/08 16:02:21;;;;;;;1.00;0.77;;;;;;;;;;13048635;22;20042;-88
2023/01/08 16:07:25;;;;;;;0.50;0.50;;;;;;;;;;13033265;22;20023;-87
2023/01/08 16:12:29;;;;;;;0.82;0.82;;;;;;;;;;13034760;22;20023;-87
2023/01/08 16:17:35;;;;;;;0.82;0.80;;;;;;;;;;13047683;22;20027;-87
2023/01/08 16:22:39;;;;;;;1.02;0.50;;;;;;;;;;13050117;22;20106;-87
2023/01/08 16:27:44;;;;;;;0.38;0.38;;;;;;;;;;13047903;22;20031;-87
2023/01/08 16:32:53;;;;;;;0.30;0.30;;;;;;;;;;13033247;22;20074;-87
2023/01/08 16:37:56;;;;;;;0.40;0.40;;;;;;;;;;13040234;22;20027;-87
2023/01/08 16:43:03;;;;;;;0.75;0.55;;;;;;;;;;13047217;22;20054;-86
2023/01/08 16:48:08;;;;;;;;;;;;;;;;;;13046745;22;20103;-87
2023/01/08 16:53:12;;;;;;;1.50;0.93;;;;;;;;;;13047104;22;19921;-87
2023/01/08 16:58:16;;;;;;;1.40;0.80;;;;;;;;;;13020932;22;20019;-87
2023/01/08 17:03:22;;;;;;;1.05;0.70;;;;;;;;;;13047193;22;20347;-86
2023/01/08 17:08:27;;;;;;;1.80;1.13;;;;;;;;;;13018573;22;20050;-86
2023/01/08 17:13:31;;;;;;;2.00;0.80;;;;;;;;;;13045614;22;20023;-87
2023/01/08 17:18:37;;;;;;;2.05;0.90;;;;;;;;;;13023901;22;20023;-87
2023/01/08 17:23:41;;;;;;;1.00;0.68;;;;;;;;;;13047225;22;20026;-86
2023/01/08 17:28:46;;;;;;;1.17;0.70;;;;;;;;;;13047851;22;20027;-86
2023/01/08 17:33:53;;;;;;;1.40;0.80;;;;;;;;;;13034866;22;20023;-86
2023/01/08 17:38:59;;;;;;;1.10;1.00;;;;;;;;;;13048246;22;20019;-87
2023/01/08 17:44:05;;;;;;;1.42;0.95;;;;;;;;;;13046813;22;20090;-85
2023/01/08 17:49:11;;;;;;;1.47;1.10;;;;;;;;;;13047524;22;20023;-87
2023/01/08 17:54:17;;;;;;;1.13;0.80;;;;;;;;;;13045977;22;20286;-86
2023/01/08 17:59:21;;;;;;;1.65;0.90;;;;;;;;;;13046321;22;20027;-86
2023/01/08 18:04:27;;;;;;;0.85;0.80;;;;;;;;;;13047390;22;20019;-87
2023/01/08 18:09:31;;;;;;;0.93;0.50;;;;;;;;;;13046497;22;20023;-86
2023/01/08 18:14:37;;;;;;;1.35;0.73;;;;;;;;;;13049149;22;20019;-87
2023/01/08 18:19:43;;;;;;;1.15;0.90;;;;;;;;;;13048890;22;20050;-86
2023/01/08 18:24:47;;;;;;;0.90;0.87;;;;;;;;;;13050097;22;20020;-87
2023/01/08 18:29:53;;;;;;;1.23;1.02;;;;;;;;;;13047868;22;20027;-87
2023/01/08 18:34:59;;;;;;;1.15;0.82;;;;;;;;;;13050408;22;20526;-87
2023/01/08 18:40:04;;;;;;;1.80;1.25;;;;;;;;;;13056851;22;20414;-86
2023/01/08 18:45:10;;;;;;;1.92;1.30;;;;;;;;;;13051537;22;20030;-87
2023/01/08 18:50:17;;;;;;;1.25;0.88;;;;;;;;;;13051670;22;20031;-87
2023/01/08 18:55:21;;;;;;;1.85;0.90;;;;;;;;;;13051834;22;20026;-86
2023/01/08 19:00:25;;;;;;;1.23;0.80;;;;;;;;;;13050409;22;20031;-87
2023/01/08 19:05:30;;;;;;;0.85;0.73;;;;;;;;;;13050689;22;20019;-86
2023/01/08 19:10:36;;;;;;;0.90;0.70;;;;;;;;;;13047310;22;20027;-87
2023/01/08 19:15:40;;;;;;;1.38;0.80;;;;;;;;;;13049350;22;20015;-86
2023/01/08 19:20:48;;;;;;;1.40;0.90;;;;;;;;;;13051441;22;20390;-86
2023/01/08 19:25:53;;;;;;;0.80;0.63;;;;;;;;;;13052841;22;20023;-87
2023/01/08 19:30:58;;;;;;;1.38;0.90;;;;;;;;;;13051708;22;20023;-87
2023/01/08 19:36:07;;;;;;;0.93;0.70;;;;;;;;;;13052436;22;20023;-87
2023/01/08 19:46:30;;;;;;;0.60;0.57;;;;;;;;;;13046844;22;20390;-86
2023/01/08 19:51:35;;;;;;;2.85;0.90;;;;;;;;;;13050992;22;20023;-87
2023/01/08 19:56:40;;;;;;;1.52;1.05;;;;;;;;;;13050495;22;20054;-87
2023/01/08 20:01:44;;;;;;;1.35;0.88;;;;;;;;;;13049949;22;20050;-87
2023/01/08 20:06:51;;;;;;;0.95;0.68;;;;;;;;;;13048238;22;20019;-87
2023/01/08 20:11:55;;;;;;;1.30;1.10;;;;;;;;;;13050593;22;20357;-87
2023/01/08 20:16:59;;;;;;;2.00;1.25;;;;;;;;;;13034202;22;20466;-87
2023/01/08 20:22:04;;;;;;;1.85;1.20;;;;;;;;;;13048510;22;20311;-87
2023/01/08 20:27:08;;;;;;;3.00;1.05;;;;;;;;;;13049739;22;20358;-87
2023/01/08 20:32:12;;;;;;;0.93;0.90;;;;;;;;;;13047440;22;20024;-87
2023/01/08 20:37:17;;;;;;;1.75;1.20;;;;;;;;;;13048610;22;20026;-87
2023/01/08 20:42:21;;;;;;;1.63;0.97;;;;;;;;;;13049071;22;20034;-87
2023/01/08 20:47:36;;;;;;;1.20;0.90;;;;;;;;;;13049121;22;20022;-87
2023/01/08 20:52:41;;;;;;;1.17;1.00;;;;;;;;;;13047456;22;20026;-87
2023/01/08 20:57:45;;;;;;;1.57;1.10;;;;;;;;;;13046938;22;20492;-87
2023/01/08 21:02:49;;;;;;;2.58;0.90;;;;;;;;;;13048424;22;20019;-87
2023/01/08 21:07:56;;;;;;;2.05;1.17;;;;;;;;;;13048198;22;20023;-87
2023/01/08 21:13:00;;;;;;;2.45;1.00;;;;;;;;;;13048337;22;20029;-87
2023/01/08 21:18:05;;;;;;;1.98;0.93;;;;;;;;;;13047342;22;20029;-87
2023/01/08 21:23:13;;;;;;;1.27;0.80;;;;;;;;;;13048645;22;20516;-87
2023/01/08 21:28:17;;;;;;;1.48;1.02;;;;;;;;;;13048430;22;20019;-86
2023/01/08 21:33:21;;;;;;;1.58;1.10;;;;;;;;;;13047687;22;20046;-87
2023/01/08 21:38:26;;;;;;;2.13;1.13;;;;;;;;;;13046546;22;20029;-86
2023/01/08 21:48:53;;;;;;;1.52;0.90;;;;;;;;;;13048168;22;20493;-87
2023/01/08 21:53:58;;;;;;;0.80;0.80;;;;;;;;;;13047016;22;20019;-87
2023/01/08 21:59:02;;;;;;;1.00;0.90;;;;;;;;;;13047317;22;20118;-87
2023/01/08 22:04:07;;;;;;;1.35;0.80;;;;;;;;;;13058317;22;20019;-87
2023/01/08 22:09:12;;;;;;;4.10;2.65;;;;;;;;;;13044830;22;20027;-88
2023/01/08 22:14:17;;;;;;;2.15;1.60;;;;;;;;;;13050794;22;20049;-88
2023/01/08 22:19:21;;;;;;;1.02;0.93;;;;;;;;;;13051727;22;20027;-88
2023/01/08 22:24:26;;;;;;;0.77;0.75;;;;;;;;;;13051179;22;20027;-88
2023/01/08 22:29:30;;;;;;;1.02;0.93;;;;;;;;;;13051531;22;20023;-88
2023/01/08 22:34:35;;;;;;;0.80;0.70;;;;;;;;;;13048407;22;20019;-89
2023/01/08 22:39:40;;;;;;;1.45;1.10;;;;;;;;;;13049306;22;20027;-89
2023/01/08 22:44:45;;;;;;;1.70;1.10;;;;;;;;;;13049185;22;20058;-88
2023/01/08 22:49:49;;;;;;;1.10;1.00;;;;;;;;;;13050804;22;20027;-89
2023/01/08 22:54:56;;;;;;;1.23;1.13;;;;;;;;;;13048835;22;20027;-89
2023/01/08 23:00:00;;;;;;;1.17;1.00;;;;;;;;;;13050096;22;20504;-88
2023/01/08 23:05:08;;;;;;;1.25;1.15;;;;;;;;;;13048040;22;20023;-88
2023/01/08 23:10:16;;;;;;;1.02;0.90;;;;;;;;;;13050526;22;20097;-89
2023/01/08 23:15:22;;;;;;;1.10;0.95;;;;;;;;;;13049741;22;20044;-89
2023/01/08 23:20:25;;;;;;;0.90;0.85;;;;;;;;;;13021468;22;20110;-89
2023/01/08 23:25:31;;;;;;;0.80;0.77;;;;;;;;;;13048845;22;20027;-89
2023/01/08 23:30:36;;;;;;;0.70;0.70;;;;;;;;;;13048415;22;20028;-89
2023/01/08 23:35:41;;;;;;;0.70;0.70;;;;;;;;;;13046671;22;20093;-89
2023/01/08 23:40:47;;;;;;;0.67;0.60;;;;;;;;;;13045139;22;20019;-88
2023/01/08 23:45:51;;;;;;;1.25;0.95;;;;;;;;;;13046411;22;20023;-89
2023/01/08 23:50:55;;;;;;;0.50;0.50;;;;;;;;;;13044168;22;20026;-89
2023/01/08 23:56:00;;;;;;;1.65;0.98;;;;;;;;;;13048009;22;20458;-89
